sensor_id;sensor_type;location;lat;lon;timestamp;pressure;altitude;pressure_sealevel;temperature;humidity
6938;BME280;40040;42.706;23.372;2023-02-13T00:00:15;144070.28;;;-0.51;100.00
6938;BME280;40040;42.706;23.372;2023-02-13T00:02:43;144136.28;;;-0.24;100.00
6938;BME280;40040;42.706;23.372;2023-02-13T00:05:10;144138.69;;;-0.23;100.00
6938;BME280;40040;42.706;23.372;2023-02-13T00:07:37;144032.41;;;-0.66;100.00
6938;BME280;40040;42.706;23.372;2023-02-13T00:10:05;144067.81;;;-0.52;100.00
6938;BME280;40040;42.706;23.372;2023-02-13T00:12:32;143987.16;;;-0.85;100.00
6938;BME280;40040;42.706;23.372;2023-02-13T00:14:59;144045.81;;;-0.61;100.00
6938;BME280;40040;42.706;23.372;2023-02-13T00:17:27;144100.81;;;-0.38;100.00
6938;BME280;40040;42.706;23.372;2023-02-13T00:19:54;144092.25;;;-0.42;100.00
6938;BME280;40040;42.706;23.372;2023-02-13T00:22:21;144093.47;;;-0.41;100.00
6938;BME280;40040;42.706;23.372;2023-02-13T00:24:48;144042.16;;;-0.62;100.00
6938;BME280;40040;42.706;23.372;2023-02-13T00:27:15;144045.81;;;-0.61;100.00
6938;BME280;40040;42.706;23.372;2023-02-13T00:29:42;144033.59;;;-0.66;100.00
6938;BME280;40040;42.706;23.372;2023-02-13T00:32:09;144023.84;;;-0.70;100.00
6938;BME280;40040;42.706;23.372;2023-02-13T00:34:37;143906.50;;;-1.18;100.00
6938;BME280;40040;42.706;23.372;2023-02-13T00:37:04;143924.84;;;-1.10;100.00
6938;BME280;40040;42.706;23.372;2023-02-13T00:39:31;143993.28;;;-0.82;100.00
6938;BME280;40040;42.706;23.372;2023-02-13T00:41:58;143959.06;;;-0.96;100.00
6938;BME280;40040;42.706;23.372;2023-02-13T00:44:25;143948.03;;;-1.01;100.00
6938;BME280;40040;42.706;23.372;2023-02-13T00:46:51;144044.63;;;-0.61;100.00
6938;BME280;40040;42.706;23.372;2023-02-13T00:49:18;144034.81;;;-0.65;100.00
6938;BME280;40040;42.706;23.372;2023-02-13T00:51:46;144047.03;;;-0.60;100.00
6938;BME280;40040;42.706;23.372;2023-02-13T00:54:13;144044.63;;;-0.61;100.00
6938;BME280;40040;42.706;23.372;2023-02-13T00:56:41;144029.94;;;-0.67;100.00
6938;BME280;40040;42.706;23.372;2023-02-13T00:59:08;144004.25;;;-0.78;100.00
6938;BME280;40040;42.706;23.372;2023-02-13T01:01:35;143974.94;;;-0.90;100.00
6938;BME280;40040;42.706;23.372;2023-02-13T01:04:02;144005.50;;;-0.77;100.00
6938;BME280;40040;42.706;23.372;2023-02-13T01:06:29;143984.72;;;-0.86;100.00
6938;BME280;40040;42.706;23.372;2023-02-13T01:08:57;143977.34;;;-0.89;100.00
6938;BME280;40040;42.706;23.372;2023-02-13T01:11:24;143872.31;;;-1.32;100.00
6938;BME280;40040;42.706;23.372;2023-02-13T01:13:51;143921.19;;;-1.12;100.00
6938;BME280;40040;42.706;23.372;2023-02-13T01:16:17;143835.69;;;-1.47;100.00
6938;BME280;40040;42.706;23.372;2023-02-13T01:18:44;143829.56;;;-1.50;100.00
6938;BME280;40040;42.706;23.372;2023-02-13T01:21:15;143777.09;;;-1.71;100.00
6938;BME280;40040;42.706;23.372;2023-02-13T01:23:43;143753.84;;;-1.81;100.00
6938;BME280;40040;42.706;23.372;2023-02-13T01:26:16;143825.91;;;-1.51;100.00
6938;BME280;40040;42.706;23.372;2023-02-13T01:28:43;143811.28;;;-1.57;100.00
6938;BME280;40040;42.706;23.372;2023-02-13T01:31:10;143795.38;;;-1.64;100.00
6938;BME280;40040;42.706;23.372;2023-02-13T01:33:37;143844.22;;;-1.44;100.00
6938;BME280;40040;42.706;23.372;2023-02-13T01:36:06;143829.56;;;-1.50;100.00
6938;BME280;40040;42.706;23.372;2023-02-13T01:38:34;143707.47;;;-2.00;100.00
6938;BME280;40040;42.706;23.372;2023-02-13T01:41:01;143747.78;;;-1.83;100.00
6938;BME280;40040;42.706;23.372;2023-02-13T01:43:44;143796.59;;;-1.63;100.00
6938;BME280;40040;42.706;23.372;2023-02-13T01:46:13;143792.94;;;-1.65;100.00
6938;BME280;40040;42.706;23.372;2023-02-13T01:48:41;143799.06;;;-1.62;100.00
6938;BME280;40040;42.706;23.372;2023-02-13T01:51:13;143816.16;;;-1.55;100.00
6938;BME280;40040;42.706;23.372;2023-02-13T01:53:44;143690.38;;;-2.07;100.00
6938;BME280;40040;42.706;23.372;2023-02-13T01:56:15;143665.97;;;-2.17;100.00
6938;BME280;40040;42.706;23.372;2023-02-13T01:58:46;143752.63;;;-1.81;100.00
6938;BME280;40040;42.706;23.372;2023-02-13T02:01:14;143759.97;;;-1.78;100.00
6938;BME280;40040;42.706;23.372;2023-02-13T02:03:43;143757.50;;;-1.79;100.00
6938;BME280;40040;42.706;23.372;2023-02-13T02:06:17;143766.06;;;-1.76;100.00
6938;BME280;40040;42.706;23.372;2023-02-13T02:08:47;143679.41;;;-2.11;100.00
6938;BME280;40040;42.706;23.372;2023-02-13T02:11:21;143734.34;;;-1.89;100.00
6938;BME280;40040;42.706;23.372;2023-02-13T02:13:53;143797.84;;;-1.63;100.00
6938;BME280;40040;42.706;23.372;2023-02-13T02:16:20;143791.69;;;-1.65;100.00
6938;BME280;40040;42.706;23.372;2023-02-13T02:18:47;143801.50;;;-1.61;100.00
6938;BME280;40040;42.706;23.372;2023-02-13T02:21:53;143803.91;;;-1.60;100.00
6938;BME280;40040;42.706;23.372;2023-02-13T02:24:45;143794.19;;;-1.64;100.00
6938;BME280;40040;42.706;23.372;2023-02-13T02:27:30;143817.34;;;-1.55;100.00
6938;BME280;40040;42.706;23.372;2023-02-13T02:30:33;143764.88;;;-1.76;100.00
6938;BME280;40040;42.706;23.372;2023-02-13T02:33:17;143811.28;;;-1.57;100.00
6938;BME280;40040;42.706;23.372;2023-02-13T02:35:54;143813.69;;;-1.56;100.00
6938;BME280;40040;42.706;23.372;2023-02-13T02:38:38;143674.53;;;-2.13;100.00
6938;BME280;40040;42.706;23.372;2023-02-13T02:41:10;143806.38;;;-1.59;100.00
6938;BME280;40040;42.706;23.372;2023-02-13T02:44:10;143825.91;;;-1.51;100.00
6938;BME280;40040;42.706;23.372;2023-02-13T02:46:52;143814.94;;;-1.56;100.00
6938;BME280;40040;42.706;23.372;2023-02-13T02:49:40;143774.59;;;-1.72;100.00
6938;BME280;40040;42.706;23.372;2023-02-13T02:52:33;143639.13;;;-2.28;100.00
6938;BME280;40040;42.706;23.372;2023-02-13T02:55:10;143669.63;;;-2.15;100.00
6938;BME280;40040;42.706;23.372;2023-02-13T02:57:45;143645.25;;;-2.25;100.00
6938;BME280;40040;42.706;23.372;2023-02-13T03:00:33;143611.06;;;-2.40;100.00
6938;BME280;40040;42.706;23.372;2023-02-13T03:03:21;143624.50;;;-2.34;100.00
6938;BME280;40040;42.706;23.372;2023-02-13T03:06:11;143683.06;;;-2.10;100.00
6938;BME280;40040;42.706;23.372;2023-02-13T03:08:44;143673.28;;;-2.14;100.00
6938;BME280;40040;42.706;23.372;2023-02-13T03:11:29;143650.13;;;-2.23;100.00
6938;BME280;40040;42.706;23.372;2023-02-13T03:14:17;143669.63;;;-2.15;100.00
6938;BME280;40040;42.706;23.372;2023-02-13T03:16:46;143650.13;;;-2.23;100.00
6938;BME280;40040;42.706;23.372;2023-02-13T03:19:40;143613.50;;;-2.39;100.00
6938;BME280;40040;42.706;23.372;2023-02-13T03:22:37;143657.44;;;-2.20;100.00
6938;BME280;40040;42.706;23.372;2023-02-13T03:25:11;143655.03;;;-2.21;100.00
6938;BME280;40040;42.706;23.372;2023-02-13T03:27:57;143548.84;;;-2.65;100.00
6938;BME280;40040;42.706;23.372;2023-02-13T03:30:55;143674.53;;;-2.13;100.00
6938;BME280;40040;42.706;23.372;2023-02-13T03:33:33;143586.69;;;-2.50;100.00
6938;BME280;40040;42.706;23.372;2023-02-13T03:36:09;143674.53;;;-2.13;100.00
6938;BME280;40040;42.706;23.372;2023-02-13T03:39:01;143659.84;;;-2.19;100.00
6938;BME280;40040;42.706;23.372;2023-02-13T03:41:36;143576.91;;;-2.54;100.00
6938;BME280;40040;42.706;23.372;2023-02-13T03:44:11;143655.03;;;-2.21;100.00
6938;BME280;40040;42.706;23.372;2023-02-13T03:46:44;143667.22;;;-2.16;100.00
6938;BME280;40040;42.706;23.372;2023-02-13T03:49:17;143542.72;;;-2.68;100.00
6938;BME280;40040;42.706;23.372;2023-02-13T03:52:06;143633.03;;;-2.31;100.00
6938;BME280;40040;42.706;23.372;2023-02-13T03:54:40;143647.66;;;-2.24;100.00
6938;BME280;40040;42.706;23.372;2023-02-13T03:57:29;143611.06;;;-2.40;100.00
6938;BME280;40040;42.706;23.372;2023-02-13T04:00:16;143604.94;;;-2.42;100.00
6938;BME280;40040;42.706;23.372;2023-02-13T04:02:51;143575.66;;;-2.54;100.00
6938;BME280;40040;42.706;23.372;2023-02-13T04:05:24;143537.84;;;-2.70;100.00
6938;BME280;40040;42.706;23.372;2023-02-13T04:07:52;143593.97;;;-2.47;100.00
6938;BME280;40040;42.706;23.372;2023-02-13T04:10:21;143578.13;;;-2.53;100.00
6938;BME280;40040;42.706;23.372;2023-02-13T04:12:56;143541.50;;;-2.68;100.00
6938;BME280;40040;42.706;23.372;2023-02-13T04:15:28;143574.47;;;-2.55;100.00
6938;BME280;40040;42.706;23.372;2023-02-13T04:18:01;143552.50;;;-2.64;100.00
6938;BME280;40040;42.706;23.372;2023-02-13T04:20:30;143559.81;;;-2.61;100.00
6938;BME280;40040;42.706;23.372;2023-02-13T04:23:03;143508.56;;;-2.82;100.00
6938;BME280;40040;42.706;23.372;2023-02-13T04:25:32;143562.25;;;-2.60;100.00
6938;BME280;40040;42.706;23.372;2023-02-13T04:28:00;143419.56;;;-3.18;100.00
6938;BME280;40040;42.706;23.372;2023-02-13T04:30:26;143518.34;;;-2.78;100.00
6938;BME280;40040;42.706;23.372;2023-02-13T04:32:53;143470.78;;;-2.97;100.00
6938;BME280;40040;42.706;23.372;2023-02-13T04:35:20;143529.31;;;-2.73;100.00
6938;BME280;40040;42.706;23.372;2023-02-13T04:37:47;143411.00;;;-3.22;100.00
6938;BME280;40040;42.706;23.372;2023-02-13T04:40:14;143531.78;;;-2.72;100.00
6938;BME280;40040;42.706;23.372;2023-02-13T04:42:43;143469.53;;;-2.98;100.00
6938;BME280;40040;42.706;23.372;2023-02-13T04:45:09;143491.50;;;-2.89;100.00
6938;BME280;40040;42.706;23.372;2023-02-13T04:47:36;143430.56;;;-3.14;100.00
6938;BME280;40040;42.706;23.372;2023-02-13T04:50:04;143469.53;;;-2.98;100.00
6938;BME280;40040;42.706;23.372;2023-02-13T04:52:31;143589.09;;;-2.49;100.00
6938;BME280;40040;42.706;23.372;2023-02-13T04:54:58;143589.09;;;-2.49;100.00
6938;BME280;40040;42.706;23.372;2023-02-13T04:57:25;143564.72;;;-2.59;100.00
6938;BME280;40040;42.706;23.372;2023-02-13T04:59:53;143517.13;;;-2.78;100.00
6938;BME280;40040;42.706;23.372;2023-02-13T05:02:20;143547.63;;;-2.66;100.00
6938;BME280;40040;42.706;23.372;2023-02-13T05:04:47;143552.50;;;-2.64;100.00
6938;BME280;40040;42.706;23.372;2023-02-13T05:07:14;143520.78;;;-2.77;100.00
6938;BME280;40040;42.706;23.372;2023-02-13T05:09:41;143489.09;;;-2.90;100.00
6938;BME280;40040;42.706;23.372;2023-02-13T05:12:07;143498.81;;;-2.86;100.00
6938;BME280;40040;42.706;23.372;2023-02-13T05:14:34;143464.66;;;-3.00;100.00
6938;BME280;40040;42.706;23.372;2023-02-13T05:17:03;143562.25;;;-2.60;100.00
6938;BME280;40040;42.706;23.372;2023-02-13T05:19:29;143567.13;;;-2.58;100.00
6938;BME280;40040;42.706;23.372;2023-02-13T05:21:56;143528.13;;;-2.74;100.00
6938;BME280;40040;42.706;23.372;2023-02-13T05:24:41;143485.44;;;-2.91;100.00
6938;BME280;40040;42.706;23.372;2023-02-13T05:27:07;143498.81;;;-2.86;100.00
6938;BME280;40040;42.706;23.372;2023-02-13T05:29:34;143503.69;;;-2.84;100.00
6938;BME280;40040;42.706;23.372;2023-02-13T05:32:03;143572.00;;;-2.56;100.00
6938;BME280;40040;42.706;23.372;2023-02-13T05:34:29;143491.50;;;-2.89;100.00
6938;BME280;40040;42.706;23.372;2023-02-13T05:36:56;143550.03;;;-2.65;100.00
6938;BME280;40040;42.706;23.372;2023-02-13T05:39:23;143562.25;;;-2.60;100.00
6938;BME280;40040;42.706;23.372;2023-02-13T05:41:50;143537.84;;;-2.70;100.00
6938;BME280;40040;42.706;23.372;2023-02-13T05:44:17;143583.03;;;-2.51;100.00
6938;BME280;40040;42.706;23.372;2023-02-13T05:46:44;143591.56;;;-2.48;100.00
6938;BME280;40040;42.706;23.372;2023-02-13T05:49:13;143576.91;;;-2.54;100.00
6938;BME280;40040;42.706;23.372;2023-02-13T05:51:40;143515.88;;;-2.79;100.00
6938;BME280;40040;42.706;23.372;2023-02-13T05:54:07;143468.34;;;-2.98;100.00
6938;BME280;40040;42.706;23.372;2023-02-13T05:56:34;143586.69;;;-2.50;100.00
6938;BME280;40040;42.706;23.372;2023-02-13T05:59:01;143606.19;;;-2.42;100.00
6938;BME280;40040;42.706;23.372;2023-02-13T06:01:28;143586.69;;;-2.50;100.00
6938;BME280;40040;42.706;23.372;2023-02-13T06:03:55;143615.97;;;-2.38;100.00
6938;BME280;40040;42.706;23.372;2023-02-13T06:06:23;143648.91;;;-2.24;100.00
6938;BME280;40040;42.706;23.372;2023-02-13T06:08:51;143675.75;;;-2.13;100.00
6938;BME280;40040;42.706;23.372;2023-02-13T06:11:19;143690.38;;;-2.07;100.00
6938;BME280;40040;42.706;23.372;2023-02-13T06:13:46;143687.97;;;-2.08;100.00
6938;BME280;40040;42.706;23.372;2023-02-13T06:16:13;143659.84;;;-2.19;100.00
6938;BME280;40040;42.706;23.372;2023-02-13T06:18:40;143645.25;;;-2.25;100.00
6938;BME280;40040;42.706;23.372;2023-02-13T06:21:07;143720.91;;;-1.94;100.00
6938;BME280;40040;42.706;23.372;2023-02-13T06:23:36;143713.59;;;-1.97;100.00
6938;BME280;40040;42.706;23.372;2023-02-13T06:26:03;143788.06;;;-1.67;100.00
6938;BME280;40040;42.706;23.372;2023-02-13T06:28:31;143759.97;;;-1.78;100.00
6938;BME280;40040;42.706;23.372;2023-02-13T06:30:58;143840.56;;;-1.45;100.00
6938;BME280;40040;42.706;23.372;2023-02-13T06:33:24;143762.41;;;-1.77;100.00
6938;BME280;40040;42.706;23.372;2023-02-13T06:35:51;143840.56;;;-1.45;100.00
6938;BME280;40040;42.706;23.372;2023-02-13T06:38:18;143887.00;;;-1.26;100.00
6938;BME280;40040;42.706;23.372;2023-02-13T06:40:48;143816.16;;;-1.55;100.00
6938;BME280;40040;42.706;23.372;2023-02-13T06:43:16;143954.16;;;-0.98;100.00
6938;BME280;40040;42.706;23.372;2023-02-13T06:45:43;143857.69;;;-1.38;100.00
6938;BME280;40040;42.706;23.372;2023-02-13T06:48:12;144006.72;;;-0.77;100.00
6938;BME280;40040;42.706;23.372;2023-02-13T06:50:40;144017.72;;;-0.72;100.00
6938;BME280;40040;42.706;23.372;2023-02-13T06:53:07;143945.63;;;-1.02;100.00
6938;BME280;40040;42.706;23.372;2023-02-13T06:55:34;144027.50;;;-0.68;100.00
6938;BME280;40040;42.706;23.372;2023-02-13T06:58:05;144029.94;;;-0.67;100.00
6938;BME280;40040;42.706;23.372;2023-02-13T07:00:32;144045.81;;;-0.61;100.00
6938;BME280;40040;42.706;23.372;2023-02-13T07:03:01;144071.47;;;-0.50;100.00
6938;BME280;40040;42.706;23.372;2023-02-13T07:05:28;144081.25;;;-0.46;100.00
6938;BME280;40040;42.706;23.372;2023-02-13T07:07:55;144088.59;;;-0.43;100.00
6938;BME280;40040;42.706;23.372;2023-02-13T07:10:23;144102.03;;;-0.38;100.00
6938;BME280;40040;42.706;23.372;2023-02-13T07:12:51;144131.38;;;-0.26;100.00
6938;BME280;40040;42.706;23.372;2023-02-13T07:15:19;144157.06;;;-0.15;100.00
6938;BME280;40040;42.706;23.372;2023-02-13T07:17:46;144180.31;;;-0.06;100.00
6938;BME280;40040;42.706;23.372;2023-02-13T07:20:13;144188.88;;;-0.02;100.00
6938;BME280;40040;42.706;23.372;2023-02-13T07:22:40;144170.50;;;-0.10;100.00
6938;BME280;40040;42.706;23.372;2023-02-13T07:25:07;144212.06;;;0.08;100.00
6938;BME280;40040;42.706;23.372;2023-02-13T07:27:34;144234.09;;;0.17;100.00
6938;BME280;40040;42.706;23.372;2023-02-13T07:30:01;144226.78;;;0.14;100.00
6938;BME280;40040;42.706;23.372;2023-02-13T07:32:29;144251.22;;;0.24;100.00
6938;BME280;40040;42.706;23.372;2023-02-13T07:34:56;144278.16;;;0.35;100.00
6938;BME280;40040;42.706;23.372;2023-02-13T07:37:23;144275.69;;;0.34;100.00
6938;BME280;40040;42.706;23.372;2023-02-13T07:39:50;144309.94;;;0.48;100.00
6938;BME280;40040;42.706;23.372;2023-02-13T07:42:17;144296.47;;;0.42;100.00
6938;BME280;40040;42.706;23.372;2023-02-13T07:44:44;144308.69;;;0.47;100.00
6938;BME280;40040;42.706;23.372;2023-02-13T07:47:11;144334.38;;;0.58;100.00
6938;BME280;40040;42.706;23.372;2023-02-13T07:49:39;144346.63;;;0.63;100.00
6938;BME280;40040;42.706;23.372;2023-02-13T07:52:06;144394.34;;;0.82;100.00
6938;BME280;40040;42.706;23.372;2023-02-13T07:54:33;144410.28;;;0.89;100.00
6938;BME280;40040;42.706;23.372;2023-02-13T07:57:12;144424.97;;;0.95;100.00
6938;BME280;40040;42.706;23.372;2023-02-13T07:59:39;144434.75;;;0.99;100.00
6938;BME280;40040;42.706;23.372;2023-02-13T08:02:10;144395.59;;;0.83;100.00
6938;BME280;40040;42.706;23.372;2023-02-13T08:04:37;144484.94;;;1.20;100.00
6938;BME280;40040;42.706;23.372;2023-02-13T08:07:05;144511.91;;;1.31;100.00
6938;BME280;40040;42.706;23.372;2023-02-13T08:09:32;144466.56;;;1.12;100.00
6938;BME280;40040;42.706;23.372;2023-02-13T08:12:17;144576.75;;;1.57;100.00
6938;BME280;40040;42.706;23.372;2023-02-13T08:14:43;144609.84;;;1.71;100.00
6938;BME280;40040;42.706;23.372;2023-02-13T08:17:11;144615.94;;;1.73;100.00
6938;BME280;40040;42.706;23.372;2023-02-13T08:19:37;144638.00;;;1.82;100.00
6938;BME280;40040;42.706;23.372;2023-02-13T08:22:06;144666.16;;;1.94;100.00
6938;BME280;40040;42.706;23.372;2023-02-13T08:24:33;144633.09;;;1.80;100.00
6938;BME280;40040;42.706;23.372;2023-02-13T08:27:00;144738.44;;;2.23;100.00
6938;BME280;40040;42.706;23.372;2023-02-13T08:29:26;144726.19;;;2.18;100.00
6938;BME280;40040;42.706;23.372;2023-02-13T08:31:53;144785.00;;;2.43;100.00
6938;BME280;40040;42.706;23.372;2023-02-13T08:34:20;144776.44;;;2.39;100.00
6938;BME280;40040;42.706;23.372;2023-02-13T08:36:47;144789.91;;;2.45;100.00
6938;BME280;40040;42.706;23.372;2023-02-13T08:39:15;144807.06;;;2.52;100.00
6938;BME280;40040;42.706;23.372;2023-02-13T08:41:42;144827.91;;;2.60;100.00
6938;BME280;40040;42.706;23.372;2023-02-13T08:44:09;144831.56;;;2.62;100.00
6938;BME280;40040;42.706;23.372;2023-02-13T08:46:36;144787.47;;;2.44;100.00
6938;BME280;40040;42.706;23.372;2023-02-13T08:49:03;144878.16;;;2.81;100.00
6938;BME280;40040;42.706;23.372;2023-02-13T08:51:30;144900.22;;;2.90;100.00
6938;BME280;40040;42.706;23.372;2023-02-13T08:53:57;144896.56;;;2.88;100.00
6938;BME280;40040;42.706;23.372;2023-02-13T08:56:26;144905.13;;;2.92;100.00
6938;BME280;40040;42.706;23.372;2023-02-13T08:58:52;144873.28;;;2.79;100.00
6938;BME280;40040;42.706;23.372;2023-02-13T09:01:19;144930.88;;;3.02;100.00
6938;BME280;40040;42.706;23.372;2023-02-13T09:03:48;144967.66;;;3.17;100.00
6938;BME280;40040;42.706;23.372;2023-02-13T09:06:15;144946.81;;;3.09;100.00
6938;BME280;40040;42.706;23.372;2023-02-13T09:08:42;144975.03;;;3.20;100.00
6938;BME280;40040;42.706;23.372;2023-02-13T09:11:09;144989.72;;;3.26;100.00
6938;BME280;40040;42.706;23.372;2023-02-13T09:13:37;145002.00;;;3.31;100.00
6938;BME280;40040;42.706;23.372;2023-02-13T09:16:05;145053.50;;;3.53;100.00
6938;BME280;40040;42.706;23.372;2023-02-13T09:18:33;145025.31;;;3.41;100.00
6938;BME280;40040;42.706;23.372;2023-02-13T09:21:02;145089.09;;;3.67;100.00
6938;BME280;40040;42.706;23.372;2023-02-13T09:23:30;145075.59;;;3.62;100.00
6938;BME280;40040;42.706;23.372;2023-02-13T09:25:58;145070.69;;;3.60;100.00
6938;BME280;40040;42.706;23.372;2023-02-13T09:28:26;144937.03;;;3.05;100.00
6938;BME280;40040;42.706;23.372;2023-02-13T09:30:54;145091.53;;;3.68;100.00
6938;BME280;40040;42.706;23.372;2023-02-13T09:33:21;145103.78;;;3.73;100.00
6938;BME280;40040;42.706;23.372;2023-02-13T09:35:48;145069.50;;;3.59;100.00
6938;BME280;40040;42.706;23.372;2023-02-13T09:38:15;144963.97;;;3.16;100.00
6938;BME280;40040;42.706;23.372;2023-02-13T09:40:45;145056.00;;;3.54;100.00
6938;BME280;40040;42.706;23.372;2023-02-13T09:43:17;145054.75;;;3.53;100.00
6938;BME280;40040;42.706;23.372;2023-02-13T09:45:49;145067.00;;;3.58;100.00
6938;BME280;40040;42.706;23.372;2023-02-13T09:48:25;145106.28;;;3.74;100.00
6938;BME280;40040;42.706;23.372;2023-02-13T09:50:54;145098.94;;;3.71;100.00
6938;BME280;40040;42.706;23.372;2023-02-13T09:53:23;145179.91;;;4.04;100.00
6938;BME280;40040;42.706;23.372;2023-02-13T09:56:02;145233.91;;;4.26;100.00
6938;BME280;40040;42.706;23.372;2023-02-13T09:58:42;145204.44;;;4.14;100.00
6938;BME280;40040;42.706;23.372;2023-02-13T10:01:24;145275.63;;;4.43;100.00
6938;BME280;40040;42.706;23.372;2023-02-13T10:06:49;145418.06;;;5.02;100.00
6938;BME280;40040;42.706;23.372;2023-02-13T10:09:27;145483.13;;;5.28;100.00
6938;BME280;40040;42.706;23.372;2023-02-13T10:12:10;145594.97;;;5.74;100.00
6938;BME280;40040;42.706;23.372;2023-02-13T10:14:46;145695.81;;;6.15;100.00
6938;BME280;40040;42.706;23.372;2023-02-13T10:17:20;145776.97;;;6.48;100.00
6938;BME280;40040;42.706;23.372;2023-02-13T10:19:53;145831.06;;;6.70;100.00
6938;BME280;40040;42.706;23.372;2023-02-13T10:22:25;145816.28;;;6.64;100.00
6938;BME280;40040;42.706;23.372;2023-02-13T10:24:56;145912.25;;;7.04;100.00
6938;BME280;40040;42.706;23.372;2023-02-13T10:27:29;145971.31;;;7.28;100.00
6938;BME280;40040;42.706;23.372;2023-02-13T10:30:00;146082.06;;;7.73;97.70
6938;BME280;40040;42.706;23.372;2023-02-13T10:32:42;146079.63;;;7.72;95.10
6938;BME280;40040;42.706;23.372;2023-02-13T10:35:22;146037.78;;;7.55;92.42
6938;BME280;40040;42.706;23.372;2023-02-13T10:37:54;145917.19;;;7.06;92.69
6938;BME280;40040;42.706;23.372;2023-02-13T10:40:23;145970.06;;;7.27;91.94
6938;BME280;40040;42.706;23.372;2023-02-13T10:43:00;146052.53;;;7.61;88.51
6938;BME280;40040;42.706;23.372;2023-02-13T10:45:50;146013.13;;;7.45;90.28
6938;BME280;40040;42.706;23.372;2023-02-13T10:48:43;146050.09;;;7.60;87.32
6938;BME280;40040;42.706;23.372;2023-02-13T10:51:21;146301.31;;;8.62;86.03
6938;BME280;40040;42.706;23.372;2023-02-13T10:54:04;146483.66;;;9.37;83.28
6938;BME280;40040;42.706;23.372;2023-02-13T10:56:38;146637.78;;;9.99;79.63
6938;BME280;40040;42.706;23.372;2023-02-13T10:59:26;146635.31;;;9.98;78.58
6938;BME280;40040;42.706;23.372;2023-02-13T11:01:56;146653.78;;;10.06;79.38
6938;BME280;40040;42.706;23.372;2023-02-13T11:04:28;146787.06;;;10.60;75.09
6938;BME280;40040;42.706;23.372;2023-02-13T11:07:00;146838.88;;;10.81;74.47
6938;BME280;40040;42.706;23.372;2023-02-13T11:09:28;146782.16;;;10.58;74.57
6938;BME280;40040;42.706;23.372;2023-02-13T11:11:56;146595.84;;;9.82;75.39
6938;BME280;40040;42.706;23.372;2023-02-13T11:14:24;146456.56;;;9.26;77.86
6938;BME280;40040;42.706;23.372;2023-02-13T11:16:57;146525.56;;;9.54;77.89
6938;BME280;40040;42.706;23.372;2023-02-13T11:19:30;146669.91;;;10.12;76.24
6938;BME280;40040;42.706;23.372;2023-02-13T11:22:03;146656.28;;;10.07;75.31
6938;BME280;40040;42.706;23.372;2023-02-13T11:24:31;146619.31;;;9.92;76.03
6938;BME280;40040;42.706;23.372;2023-02-13T11:27:00;146708.13;;;10.28;75.91
6938;BME280;40040;42.706;23.372;2023-02-13T11:29:32;146820.41;;;10.74;72.63
6938;BME280;40040;42.706;23.372;2023-02-13T11:32:17;146816.66;;;10.72;72.30
6938;BME280;40040;42.706;23.372;2023-02-13T11:34:44;146904.31;;;11.08;72.48
6938;BME280;40040;42.706;23.372;2023-02-13T11:37:18;147031.44;;;11.60;72.27
6938;BME280;40040;42.706;23.372;2023-02-13T11:39:47;147008.00;;;11.50;70.71
6938;BME280;40040;42.706;23.372;2023-02-13T11:42:15;147038.88;;;11.63;70.82
6938;BME280;40040;42.706;23.372;2023-02-13T11:44:47;146959.84;;;11.30;69.64
6938;BME280;40040;42.706;23.372;2023-02-13T11:47:14;147190.81;;;12.24;67.58
6938;BME280;40040;42.706;23.372;2023-02-13T11:49:45;147321.81;;;12.78;61.08
6938;BME280;40040;42.706;23.372;2023-02-13T11:52:24;147335.38;;;12.83;60.34
6938;BME280;40040;42.706;23.372;2023-02-13T11:54:56;147429.41;;;13.21;59.30
6938;BME280;40040;42.706;23.372;2023-02-13T11:57:28;147412.09;;;13.14;59.15
6938;BME280;40040;42.706;23.372;2023-02-13T11:59:56;147419.50;;;13.17;58.16
6938;BME280;40040;42.706;23.372;2023-02-13T12:02:24;147421.94;;;13.18;57.93
6938;BME280;40040;42.706;23.372;2023-02-13T12:04:52;147459.06;;;13.33;55.61
6938;BME280;40040;42.706;23.372;2023-02-13T12:07:23;147530.78;;;13.63;54.50
6938;BME280;40040;42.706;23.372;2023-02-13T12:09:56;147606.19;;;13.93;52.00
6938;BME280;40040;42.706;23.372;2023-02-13T12:12:31;147450.41;;;13.30;52.13
6938;BME280;40040;42.706;23.372;2023-02-13T12:15:03;147438.06;;;13.25;53.11
6938;BME280;40040;42.706;23.372;2023-02-13T12:17:36;147414.56;;;13.15;53.83
6938;BME280;40040;42.706;23.372;2023-02-13T12:20:03;147477.59;;;13.41;53.00
6938;BME280;40040;42.706;23.372;2023-02-13T12:22:41;147431.84;;;13.22;54.45
6938;BME280;40040;42.706;23.372;2023-02-13T12:28:13;147643.34;;;14.08;51.70
6938;BME280;40040;42.706;23.372;2023-02-13T12:31:13;147743.56;;;14.49;49.39
6938;BME280;40040;42.706;23.372;2023-02-13T12:34:08;147684.16;;;14.25;45.93
6938;BME280;40040;42.706;23.372;2023-02-13T12:36:48;147629.72;;;14.03;46.57
6938;BME280;40040;42.706;23.372;2023-02-13T12:39:30;147487.50;;;13.45;46.27
6938;BME280;40040;42.706;23.372;2023-02-13T12:42:10;147579.03;;;13.82;46.11
6938;BME280;40040;42.706;23.372;2023-02-13T12:44:58;147675.47;;;14.21;45.21
6938;BME280;40040;42.706;23.372;2023-02-13T12:47:29;147804.22;;;14.74;44.18
6938;BME280;40040;42.706;23.372;2023-02-13T12:50:18;147681.69;;;14.24;41.60
6938;BME280;40040;42.706;23.372;2023-02-13T12:53:02;147795.56;;;14.70;42.86
6938;BME280;40040;42.706;23.372;2023-02-13T12:55:51;147826.50;;;14.83;41.55
6938;BME280;40040;42.706;23.372;2023-02-13T12:58:48;147721.34;;;14.40;41.58
6938;BME280;40040;42.706;23.372;2023-02-13T13:01:26;147857.47;;;14.95;40.05
6938;BME280;40040;42.706;23.372;2023-02-13T13:04:10;147815.38;;;14.78;41.36
6938;BME280;40040;42.706;23.372;2023-02-13T13:06:50;147614.88;;;13.97;40.13
6938;BME280;40040;42.706;23.372;2023-02-13T13:09:46;147519.66;;;13.58;42.14
6938;BME280;40040;42.706;23.372;2023-02-13T13:12:30;147444.22;;;13.27;42.40
6938;BME280;40040;42.706;23.372;2023-02-13T13:15:07;147325.53;;;12.79;43.99